createdAt,value
2022-09-15T00:01:47.935Z,14.51
2022-09-15T00:03:50.192Z,14.56
2022-09-15T00:05:53.608Z,14.54
2022-09-15T00:07:55.546Z,14.45
2022-09-15T00:09:57.504Z,14.40
2022-09-15T00:11:59.221Z,14.45
2022-09-15T00:14:03.474Z,14.43
2022-09-15T00:16:05.717Z,14.43
2022-09-15T00:18:07.477Z,14.40
2022-09-15T00:20:10.040Z,14.41
2022-09-15T00:22:11.795Z,14.36
2022-09-15T00:24:13.489Z,14.26
2022-09-15T00:26:19.246Z,14.21
2022-09-15T00:28:22.772Z,14.27
2022-09-15T00:30:24.499Z,14.18
2022-09-15T00:32:26.458Z,14.21
2022-09-15T00:34:28.428Z,14.25
2022-09-15T00:36:30.907Z,14.22
2022-09-15T00:38:33.827Z,14.26
2022-09-15T00:41:01.743Z,14.30
2022-09-15T00:43:03.431Z,14.24
2022-09-15T00:45:06.613Z,14.13
2022-09-15T00:47:23.606Z,14.16
2022-09-15T00:49:29.801Z,14.07
2022-09-15T00:51:41.291Z,14.18
2022-09-15T00:53:44.206Z,14.22
2022-09-15T00:55:49.774Z,14.20
2022-09-15T00:57:56.147Z,14.19
2022-09-15T01:02:26.093Z,14.23
2022-09-15T01:04:27.888Z,14.27
2022-09-15T01:06:36.413Z,14.26
2022-09-15T01:09:01.155Z,14.24
2022-09-15T01:11:03.235Z,14.29
2022-09-15T01:13:11.208Z,14.32
2022-09-15T01:15:13.061Z,14.32
2022-09-15T01:19:51.471Z,14.23
2022-09-15T01:22:23.424Z,13.93
2022-09-15T01:24:43.391Z,14.29
2022-09-15T01:26:50.758Z,14.30
2022-09-15T01:29:01.520Z,14.30
2022-09-15T01:31:29.509Z,14.24
2022-09-15T01:33:38.509Z,14.23
2022-09-15T01:35:55.413Z,14.23
2022-09-15T01:38:30.720Z,14.24
2022-09-15T01:40:38.267Z,14.25
2022-09-15T01:42:42.679Z,14.23
2022-09-15T01:44:57.828Z,14.20
2022-09-15T01:47:07.352Z,14.13
2022-09-15T01:49:13.619Z,14.17
2022-09-15T01:51:16.466Z,14.23
2022-09-15T01:53:21.014Z,14.31
2022-09-15T01:55:47.142Z,14.36
2022-09-15T01:57:49.203Z,14.31
2022-09-15T01:59:53.774Z,14.30
2022-09-15T02:02:04.836Z,14.30
2022-09-15T02:05:02.245Z,14.25
2022-09-15T02:07:21.173Z,14.26
2022-09-15T02:09:30.551Z,14.26
2022-09-15T02:11:36.794Z,14.27
2022-09-15T02:14:05.470Z,14.22
2022-09-15T02:16:18.598Z,14.24
2022-09-15T02:18:41.282Z,14.20
2022-09-15T02:20:53.070Z,14.15
2022-09-15T02:23:00.185Z,14.10
2022-09-15T02:25:10.923Z,14.13
2022-09-15T02:27:19.735Z,14.08
2022-09-15T02:29:24.494Z,14.04
2022-09-15T02:31:29.470Z,14.03
2022-09-15T02:33:37.840Z,14.00
2022-09-15T02:35:41.201Z,13.82
2022-09-15T02:37:43.469Z,13.68
2022-09-15T02:39:49.970Z,13.81
2022-09-15T02:41:52.299Z,13.78
2022-09-15T02:43:54.033Z,13.82
2022-09-15T02:45:56.058Z,13.83
2022-09-15T02:47:58.728Z,13.85
2022-09-15T02:50:00.406Z,13.81
2022-09-15T02:52:02.697Z,13.82
2022-09-15T02:54:04.471Z,13.72
2022-09-15T02:56:06.626Z,13.72
2022-09-15T02:58:08.580Z,13.76
2022-09-15T03:00:11.020Z,13.71
2022-09-15T03:04:13.076Z,13.64
2022-09-15T03:06:14.803Z,13.63
2022-09-15T03:08:16.539Z,13.62
2022-09-15T03:10:18.822Z,13.56
2022-09-15T03:12:20.507Z,13.56
2022-09-15T03:14:22.294Z,13.54
2022-09-15T03:16:25.676Z,13.46
2022-09-15T03:18:27.381Z,13.37
2022-09-15T03:20:29.263Z,13.30
2022-09-15T03:22:31.531Z,13.26
2022-09-15T03:24:33.224Z,13.19
2022-09-15T03:26:34.906Z,13.18
2022-09-15T03:28:38.683Z,13.11
2022-09-15T03:30:40.367Z,13.12
2022-09-15T03:32:42.292Z,13.16
2022-09-15T03:34:44.155Z,13.11
2022-09-15T03:36:46.097Z,13.08
2022-09-15T03:38:47.836Z,13.00
2022-09-15T03:41:07.562Z,13.03
2022-09-15T03:43:10.209Z,13.04
2022-09-15T03:45:11.905Z,13.03
2022-09-15T03:47:14.006Z,13.03
2022-09-15T03:49:15.757Z,13.02
2022-09-15T03:51:17.492Z,12.99
2022-09-15T03:53:20.014Z,12.99
2022-09-15T03:55:21.686Z,12.94
2022-09-15T03:57:23.439Z,12.93
2022-09-15T03:59:25.523Z,12.89
2022-09-15T04:01:28.530Z,12.87
2022-09-15T04:03:30.331Z,12.81
2022-09-15T04:05:32.529Z,12.85
2022-09-15T04:07:34.232Z,12.84
2022-09-15T04:09:35.946Z,12.79
2022-09-15T04:11:38.851Z,12.80
2022-09-15T04:13:41.904Z,12.79
2022-09-15T04:15:43.632Z,12.74
2022-09-15T04:17:45.755Z,12.71
2022-09-15T04:19:47.506Z,12.68
2022-09-15T04:21:49.191Z,12.63
2022-09-15T04:23:51.876Z,12.61
2022-09-15T04:25:57.427Z,12.62
2022-09-15T04:27:59.099Z,12.53
2022-09-15T04:30:00.948Z,12.57
2022-09-15T04:32:03.047Z,12.56
2022-09-15T04:34:04.743Z,12.65
2022-09-15T04:36:10.097Z,12.68
2022-09-15T04:38:11.845Z,12.69
2022-09-15T04:40:13.606Z,12.71
2022-09-15T04:42:15.707Z,12.69
2022-09-15T04:44:17.581Z,12.78
2022-09-15T04:46:19.752Z,12.82
2022-09-15T04:48:22.816Z,12.79
2022-09-15T04:50:24.558Z,12.81
2022-09-15T04:52:26.293Z,12.84
2022-09-15T04:54:28.874Z,12.89
2022-09-15T04:56:30.612Z,12.93
2022-09-15T04:58:39.367Z,12.90
2022-09-15T05:00:43.227Z,12.94
2022-09-15T05:02:45.024Z,12.93
2022-09-15T05:04:48.687Z,12.93
2022-09-15T05:06:50.496Z,12.93
2022-09-15T05:08:55.117Z,12.87
2022-09-15T05:11:01.710Z,12.86
2022-09-15T05:13:03.612Z,12.90
2022-09-15T05:15:06.437Z,12.99
2022-09-15T05:17:08.194Z,12.96
2022-09-15T05:19:10.639Z,12.86
2022-09-15T05:21:15.795Z,13.04
2022-09-15T05:23:17.766Z,13.09
2022-09-15T05:25:19.507Z,13.02
2022-09-15T05:27:21.213Z,13.06
2022-09-15T05:29:22.976Z,13.21
2022-09-15T05:31:28.078Z,13.31
2022-09-15T05:33:29.818Z,13.31
2022-09-15T05:35:31.596Z,13.31
2022-09-15T05:37:34.336Z,13.36
2022-09-15T05:39:36.391Z,13.46
2022-09-15T05:41:38.249Z,13.47
2022-09-15T05:43:40.300Z,13.65
2022-09-15T05:45:42.229Z,13.73
2022-09-15T05:47:43.937Z,13.76
2022-09-15T05:49:45.809Z,14.13
2022-09-15T05:51:47.542Z,14.20
2022-09-15T05:53:49.464Z,14.10
2022-09-15T05:55:58.877Z,14.15
2022-09-15T05:58:00.614Z,14.42
2022-09-15T06:00:02.860Z,14.42
2022-09-15T06:02:05.007Z,14.29
2022-09-15T06:04:06.761Z,14.37
2022-09-15T06:06:08.661Z,14.32
2022-09-15T06:08:10.693Z,14.50
2022-09-15T06:10:12.436Z,14.59
2022-09-15T06:12:14.123Z,14.60
2022-09-15T06:14:16.078Z,14.60
2022-09-15T06:16:20.646Z,14.67
2022-09-15T06:18:22.520Z,14.73
2022-09-15T06:20:25.110Z,14.89
2022-09-15T06:22:28.190Z,15.02
2022-09-15T06:24:29.973Z,15.19
2022-09-15T06:26:31.861Z,15.28
2022-09-15T06:28:33.534Z,15.36
2022-09-15T06:30:35.341Z,15.48
2022-09-15T06:32:37.212Z,15.97
2022-09-15T06:34:38.895Z,16.14
2022-09-15T06:36:40.595Z,16.16
2022-09-15T06:38:42.987Z,16.32
2022-09-15T06:40:44.679Z,16.46
2022-09-15T06:42:46.507Z,16.43
2022-09-15T06:44:48.390Z,16.34
2022-09-15T06:46:50.294Z,16.55
2022-09-15T06:48:52.721Z,16.96
2022-09-15T06:50:54.971Z,17.28
2022-09-15T06:52:56.644Z,17.19
2022-09-15T06:54:58.423Z,16.66
2022-09-15T06:57:00.233Z,16.97
2022-09-15T06:59:01.963Z,16.91
2022-09-15T07:01:08.878Z,16.60
2022-09-15T07:03:11.009Z,16.88
2022-09-15T07:05:12.852Z,17.04
2022-09-15T07:07:14.815Z,17.17
2022-09-15T07:09:16.712Z,17.79
2022-09-15T07:11:18.670Z,17.88
2022-09-15T07:13:20.854Z,18.34
2022-09-15T07:15:22.587Z,18.67
2022-09-15T07:17:24.482Z,18.74
2022-09-15T07:19:26.167Z,18.99
2022-09-15T07:21:28.639Z,18.75
2022-09-15T07:23:30.756Z,19.02
2022-09-15T07:25:32.535Z,18.81
2022-09-15T07:27:34.470Z,19.15
2022-09-15T07:29:37.893Z,18.97
2022-09-15T07:31:39.624Z,19.08
2022-09-15T07:33:41.567Z,18.63
2022-09-15T07:35:43.960Z,18.56
2022-09-15T07:37:45.888Z,18.08
2022-09-15T07:39:47.843Z,18.09
2022-09-15T07:41:49.577Z,17.83
2022-09-15T07:43:56.752Z,18.35
2022-09-15T07:46:02.354Z,18.01
2022-09-15T07:48:04.141Z,17.80
2022-09-15T07:50:07.247Z,17.68
2022-09-15T07:52:09.418Z,17.81
2022-09-15T07:54:11.142Z,17.85
2022-09-15T07:56:13.268Z,17.75
2022-09-15T07:58:15.417Z,17.84
2022-09-15T08:00:17.245Z,18.14
2022-09-15T08:02:21.205Z,18.03
2022-09-15T08:04:23.450Z,17.85
2022-09-15T08:06:26.688Z,17.94
2022-09-15T08:08:29.739Z,17.83
2022-09-15T08:10:32.245Z,17.86
2022-09-15T08:12:33.927Z,18.03
2022-09-15T08:14:35.837Z,17.82
2022-09-15T08:16:38.731Z,17.86
2022-09-15T08:18:42.731Z,18.29
2022-09-15T08:20:44.930Z,18.34
2022-09-15T08:22:46.917Z,18.36
2022-09-15T08:24:48.635Z,18.45
2022-09-15T08:26:50.992Z,18.55
2022-09-15T08:28:53.335Z,18.19
2022-09-15T08:31:06.974Z,17.87
2022-09-15T08:33:08.774Z,17.93
2022-09-15T08:35:10.608Z,17.92
2022-09-15T08:37:12.299Z,18.08
2022-09-15T08:39:14.023Z,18.11
2022-09-15T08:41:27.704Z,18.11
2022-09-15T08:43:36.345Z,17.97
2022-09-15T08:45:49.800Z,17.75
2022-09-15T08:47:56.837Z,17.58
2022-09-15T08:50:34.040Z,17.90
2022-09-15T08:52:58.261Z,18.29
2022-09-15T08:55:19.926Z,18.29
2022-09-15T08:57:24.686Z,18.07
2022-09-15T08:59:35.795Z,18.21
2022-09-15T09:01:58.469Z,18.32
2022-09-15T09:04:18.717Z,18.44
2022-09-15T09:06:41.990Z,18.78
2022-09-15T09:08:50.742Z,18.56
2022-09-15T09:10:57.000Z,18.39
2022-09-15T09:13:20.449Z,18.64
2022-09-15T09:15:43.942Z,18.87
2022-09-15T09:17:51.513Z,18.81
2022-09-15T09:20:17.883Z,19.23
2022-09-15T09:22:25.932Z,19.23
2022-09-15T09:24:46.710Z,19.14
2022-09-15T09:26:51.802Z,19.19
2022-09-15T09:29:00.229Z,19.24
2022-09-15T09:31:05.504Z,18.81
2022-09-15T09:33:20.976Z,18.50
2022-09-15T09:35:40.049Z,18.75
2022-09-15T09:37:41.823Z,19.05
2022-09-15T09:39:43.600Z,18.52
2022-09-15T09:41:45.358Z,18.16
2022-09-15T09:43:49.128Z,18.01
2022-09-15T09:45:50.919Z,17.97
2022-09-15T09:47:56.337Z,17.82
2022-09-15T09:50:00.107Z,17.73
2022-09-15T09:52:03.364Z,17.68
2022-09-15T09:54:13.643Z,17.70
2022-09-15T09:56:24.515Z,17.76
2022-09-15T09:58:26.342Z,18.02
2022-09-15T10:00:37.033Z,18.35
2022-09-15T10:02:47.612Z,18.61
2022-09-15T10:04:55.009Z,18.61
2022-09-15T10:06:57.078Z,18.54
2022-09-15T10:09:02.329Z,18.47
2022-09-15T10:11:07.324Z,18.44
2022-09-15T10:13:11.479Z,18.50
2022-09-15T10:15:28.766Z,18.24
2022-09-15T10:17:36.338Z,18.11
2022-09-15T10:19:48.522Z,18.19
2022-09-15T10:21:50.726Z,18.05
2022-09-15T10:23:52.625Z,17.98
2022-09-15T10:26:18.369Z,18.02
2022-09-15T10:28:25.319Z,18.27
2022-09-15T10:30:27.802Z,18.60
2022-09-15T10:32:30.939Z,18.86
2022-09-15T10:34:32.697Z,19.06
2022-09-15T10:36:34.617Z,19.26
2022-09-15T10:38:46.267Z,19.65
2022-09-15T10:41:04.282Z,19.96
2022-09-15T10:43:18.194Z,19.97
2022-09-15T10:45:19.707Z,18.93
2022-09-15T10:47:29.806Z,18.54
2022-09-15T10:49:51.875Z,18.30
2022-09-15T10:52:05.566Z,18.33
2022-09-15T10:54:34.372Z,18.72
2022-09-15T10:56:55.385Z,18.89
2022-09-15T10:59:07.616Z,18.69
2022-09-15T11:01:30.837Z,18.75
2022-09-15T11:03:40.932Z,18.85
2022-09-15T11:06:09.630Z,18.96
2022-09-15T11:08:29.799Z,18.88
2022-09-15T11:11:06.654Z,18.71
2022-09-15T11:13:23.463Z,18.44
2022-09-15T11:15:34.042Z,18.87
2022-09-15T11:18:05.290Z,19.02
2022-09-15T11:20:28.093Z,18.85
2022-09-15T11:22:50.015Z,19.02
2022-09-15T11:24:53.499Z,18.69
2022-09-15T11:27:03.562Z,18.69
2022-09-15T11:29:20.231Z,18.80
2022-09-15T11:31:45.035Z,19.05
2022-09-15T11:33:58.835Z,18.91
2022-09-15T11:36:33.517Z,18.92
2022-09-15T11:38:37.945Z,18.71
2022-09-15T11:40:47.192Z,18.80
2022-09-15T11:42:48.835Z,18.87
2022-09-15T11:44:50.632Z,18.97
2022-09-15T11:47:07.227Z,18.92
2022-09-15T11:49:19.043Z,19.11
2022-09-15T11:51:24.445Z,19.06
2022-09-15T11:53:50.575Z,19.03
2022-09-15T11:56:00.521Z,18.84
2022-09-15T11:58:38.758Z,18.66
2022-09-15T12:01:00.595Z,18.91
2022-09-15T12:03:20.282Z,18.65
2022-09-15T12:05:29.288Z,18.28
2022-09-15T12:07:36.176Z,18.12
2022-09-15T12:09:38.871Z,18.17
2022-09-15T12:11:49.286Z,18.15
2022-09-15T12:13:51.748Z,18.21
2022-09-15T12:15:54.665Z,18.43
2022-09-15T12:18:27.243Z,18.82
2022-09-15T12:20:39.831Z,19.49
2022-09-15T12:22:49.286Z,19.41
2022-09-15T12:25:03.125Z,19.38
2022-09-15T12:27:04.892Z,19.32
2022-09-15T12:29:21.989Z,19.83
2022-09-15T12:31:30.981Z,19.74
2022-09-15T12:33:46.566Z,19.51
2022-09-15T12:35:48.294Z,19.32
2022-09-15T12:37:54.137Z,19.02
2022-09-15T12:39:56.006Z,19.29
2022-09-15T12:42:17.932Z,19.49
2022-09-15T12:44:42.593Z,19.35
2022-09-15T12:46:55.212Z,19.54
2022-09-15T12:49:02.610Z,19.48
2022-09-15T12:51:10.153Z,19.42
2022-09-15T12:53:23.412Z,19.22
2022-09-15T12:55:29.914Z,19.04
2022-09-15T12:57:37.386Z,19.01
2022-09-15T12:59:39.341Z,19.30
2022-09-15T13:01:48.631Z,19.51
2022-09-15T13:03:50.483Z,19.58
2022-09-15T13:06:13.594Z,19.46
2022-09-15T13:08:35.190Z,19.64
2022-09-15T13:10:41.719Z,19.61
2022-09-15T13:12:53.520Z,19.31
2022-09-15T13:14:56.986Z,19.28
2022-09-15T13:17:07.789Z,18.96
2022-09-15T13:19:34.144Z,19.01
2022-09-15T13:21:39.729Z,18.98
2022-09-15T13:23:46.618Z,18.69
2022-09-15T13:25:49.955Z,18.84
2022-09-15T13:27:57.420Z,18.94
2022-09-15T13:30:31.685Z,19.12
2022-09-15T13:32:59.203Z,19.20
2022-09-15T13:35:20.945Z,19.18
2022-09-15T13:40:20.560Z,18.83
2022-09-15T13:42:22.372Z,18.94
2022-09-15T13:45:06.686Z,19.08
2022-09-15T13:47:33.161Z,18.95
2022-09-15T13:49:59.079Z,18.96
2022-09-15T13:52:07.624Z,18.56
2022-09-15T13:54:19.491Z,18.45
2022-09-15T13:56:31.603Z,18.56
2022-09-15T14:01:04.920Z,18.17
2022-09-15T14:03:11.686Z,18.16
2022-09-15T14:05:14.439Z,18.13
2022-09-15T14:07:23.286Z,18.06
2022-09-15T14:09:29.749Z,17.96
2022-09-15T14:11:33.775Z,17.90
2022-09-15T14:13:37.425Z,17.80
2022-09-15T14:15:38.990Z,17.61
2022-09-15T14:17:45.682Z,17.58
2022-09-15T14:19:52.824Z,17.64
2022-09-15T14:21:58.249Z,17.63
2022-09-15T14:24:06.133Z,17.56
2022-09-15T14:26:13.594Z,17.64
2022-09-15T14:28:22.084Z,17.66
2022-09-15T14:30:30.944Z,17.61
2022-09-15T14:32:43.477Z,17.66
2022-09-15T14:34:45.662Z,17.70
2022-09-15T14:36:57.281Z,17.81
2022-09-15T14:39:18.602Z,17.74
2022-09-15T14:41:20.326Z,17.74
2022-09-15T14:43:32.687Z,17.69
2022-09-15T14:48:09.059Z,17.51
2022-09-15T14:50:16.565Z,17.50
2022-09-15T14:52:34.192Z,17.46
2022-09-15T14:54:37.769Z,17.30
2022-09-15T14:56:41.697Z,17.34
2022-09-15T14:58:59.855Z,17.27
2022-09-15T15:01:09.608Z,17.30
2022-09-15T15:03:17.561Z,17.29
2022-09-15T15:05:26.270Z,17.27
2022-09-15T15:07:31.095Z,17.32
2022-09-15T15:09:37.376Z,17.41
2022-09-15T15:11:41.413Z,17.46
2022-09-15T15:13:45.828Z,17.48
2022-09-15T15:15:48.389Z,17.54
2022-09-15T15:17:52.598Z,17.49
2022-09-15T15:20:27.555Z,17.53
2022-09-15T15:22:29.812Z,17.56
2022-09-15T15:24:32.023Z,17.59
2022-09-15T15:26:40.787Z,17.45
2022-09-15T15:28:42.778Z,17.51
2022-09-15T15:30:46.577Z,17.29
2022-09-15T15:32:48.892Z,17.48
2022-09-15T15:35:00.095Z,17.23
2022-09-15T15:37:03.496Z,17.40
2022-09-15T15:39:07.820Z,17.37
2022-09-15T15:41:20.674Z,17.38
2022-09-15T15:43:25.101Z,17.48
2022-09-15T15:45:29.571Z,17.36
2022-09-15T15:47:35.397Z,17.32
2022-09-15T15:49:46.176Z,17.40
2022-09-15T15:51:56.595Z,17.45
2022-09-15T15:53:58.447Z,17.37
2022-09-15T15:56:00.223Z,17.40
2022-09-15T15:58:01.955Z,17.29
2022-09-15T16:00:11.112Z,17.33
2022-09-15T16:02:15.799Z,17.39
2022-09-15T16:04:24.399Z,17.34
2022-09-15T16:06:28.036Z,17.33
2022-09-15T16:08:33.378Z,17.29
2022-09-15T16:10:43.135Z,17.21
2022-09-15T16:12:45.056Z,17.10
2022-09-15T16:14:47.188Z,17.06
2022-09-15T16:16:54.103Z,16.86
2022-09-15T16:18:59.759Z,16.78
2022-09-15T16:21:04.633Z,16.81
2022-09-15T16:23:07.545Z,16.71
2022-09-15T16:25:23.614Z,16.69
2022-09-15T16:27:25.376Z,16.62
2022-09-15T16:29:27.083Z,16.56
2022-09-15T16:31:30.114Z,16.50
2022-09-15T16:33:39.942Z,16.36
2022-09-15T16:35:56.862Z,16.46
2022-09-15T16:38:08.010Z,16.41
2022-09-15T16:40:14.236Z,16.35
2022-09-15T16:42:17.809Z,16.34
2022-09-15T16:44:23.501Z,16.30
2022-09-15T16:46:25.545Z,16.26
2022-09-15T16:48:29.284Z,16.27
2022-09-15T16:50:50.098Z,16.02
2022-09-15T16:52:59.279Z,15.98
2022-09-15T16:55:01.011Z,15.99
2022-09-15T16:57:02.939Z,15.93
2022-09-15T16:59:04.639Z,15.82
2022-09-15T17:01:07.108Z,15.78
2022-09-15T17:03:12.550Z,15.72
2022-09-15T17:05:48.672Z,15.70
2022-09-15T17:10:09.565Z,15.54
2022-09-15T17:14:18.335Z,15.52
2022-09-15T17:16:20.393Z,15.48
2022-09-15T17:18:23.235Z,15.53
2022-09-15T17:20:25.402Z,15.40
2022-09-15T17:22:27.224Z,15.45
2022-09-15T17:24:28.934Z,15.42
2022-09-15T17:26:31.613Z,15.48
2022-09-15T17:28:35.217Z,15.35
2022-09-15T17:30:38.181Z,15.37
2022-09-15T17:32:40.215Z,15.29
2022-09-15T17:34:46.053Z,15.32
2022-09-15T17:36:47.720Z,15.19
2022-09-15T17:38:51.945Z,15.26
2022-09-15T17:40:57.162Z,15.20
2022-09-15T17:43:17.223Z,15.19
2022-09-15T17:45:49.593Z,15.10
2022-09-15T17:47:52.836Z,15.06
2022-09-15T17:49:54.849Z,14.96
2022-09-15T17:51:59.879Z,14.94
2022-09-15T17:54:01.705Z,14.94
2022-09-15T17:56:03.425Z,14.87
2022-09-15T17:58:08.327Z,14.77
2022-09-15T18:00:16.238Z,14.77
2022-09-15T18:02:20.462Z,14.73
2022-09-15T18:04:22.751Z,14.73
2022-09-15T18:06:24.473Z,14.72
2022-09-15T18:08:28.531Z,14.58
2022-09-15T18:10:35.173Z,14.61
2022-09-15T18:12:37.039Z,14.64
2022-09-15T18:14:38.853Z,14.56
2022-09-15T18:16:40.584Z,14.49
2022-09-15T18:18:42.987Z,14.38
2022-09-15T18:20:44.933Z,14.39
2022-09-15T18:22:47.950Z,14.43
2022-09-15T18:24:49.833Z,14.40
2022-09-15T18:26:51.651Z,14.45
2022-09-15T18:28:53.668Z,14.48
2022-09-15T18:30:55.857Z,14.54
2022-09-15T18:32:58.756Z,14.53
2022-09-15T18:35:00.752Z,14.46
2022-09-15T18:37:03.388Z,14.48
2022-09-15T18:39:08.827Z,14.38
2022-09-15T18:41:15.352Z,14.42
2022-09-15T18:43:17.648Z,14.40
2022-09-15T18:45:20.190Z,14.45
2022-09-15T18:47:22.011Z,14.46
2022-09-15T18:49:23.791Z,14.46
2022-09-15T18:51:50.490Z,14.46
2022-09-15T18:53:54.542Z,14.43
2022-09-15T18:55:59.373Z,14.34
2022-09-15T18:58:01.883Z,14.28
2022-09-15T19:00:12.430Z,14.17
2022-09-15T19:02:14.411Z,13.99
2022-09-15T19:04:16.270Z,13.79
2022-09-15T19:06:27.433Z,13.89
2022-09-15T19:08:30.442Z,13.55
2022-09-15T19:10:32.198Z,13.64
2022-09-15T19:12:36.749Z,13.79
2022-09-15T19:14:41.293Z,13.75
2022-09-15T19:16:57.636Z,13.65
2022-09-15T19:19:00.850Z,13.65
2022-09-15T19:21:10.536Z,13.63
2022-09-15T19:23:12.994Z,13.64
2022-09-15T19:25:16.822Z,13.61
2022-09-15T19:27:19.055Z,13.54
2022-09-15T19:29:20.768Z,13.58
2022-09-15T19:31:23.930Z,13.58
2022-09-15T19:33:26.919Z,13.53
2022-09-15T19:35:29.286Z,13.55
2022-09-15T19:37:31.053Z,13.47
2022-09-15T19:39:32.933Z,13.48
2022-09-15T19:41:34.649Z,13.51
2022-09-15T19:43:36.613Z,13.43
2022-09-15T19:45:41.683Z,13.43
2022-09-15T19:47:43.434Z,13.36
2022-09-15T19:49:45.250Z,13.36
2022-09-15T19:51:47.075Z,13.39
2022-09-15T19:53:48.823Z,13.41
2022-09-15T19:55:51.470Z,13.44
2022-09-15T19:57:53.229Z,13.39
2022-09-15T19:59:54.912Z,13.44
2022-09-15T20:02:01.546Z,13.38
2022-09-15T20:08:42.487Z,13.11
2022-09-15T20:10:45.633Z,13.09
2022-09-15T20:12:47.400Z,12.92
2022-09-15T20:14:49.087Z,12.84
2022-09-15T20:16:50.771Z,12.75
2022-09-15T20:18:54.036Z,12.70
2022-09-15T20:20:56.620Z,12.61
2022-09-15T20:23:07.380Z,12.54
2022-09-15T20:25:10.212Z,12.45
2022-09-15T20:27:12.127Z,12.44
2022-09-15T20:29:17.753Z,12.37
2022-09-15T20:33:51.119Z,12.33
2022-09-15T20:36:03.489Z,12.29
2022-09-15T20:38:05.279Z,12.08
2022-09-15T20:40:08.354Z,12.08
2022-09-15T20:42:10.068Z,12.09
2022-09-15T20:44:12.311Z,12.03
2022-09-15T20:46:16.995Z,12.11
2022-09-15T20:48:18.715Z,12.03
2022-09-15T20:50:20.419Z,12.07
2022-09-15T20:52:23.613Z,12.05
2022-09-15T20:54:27.539Z,11.93
2022-09-15T20:56:31.285Z,11.89
2022-09-15T20:58:34.241Z,11.82
2022-09-15T21:00:35.927Z,11.73
2022-09-15T21:02:39.226Z,11.74
2022-09-15T21:04:41.260Z,11.70
2022-09-15T21:06:47.202Z,11.72
2022-09-15T21:08:49.928Z,11.72
2022-09-15T21:10:51.833Z,11.66
2022-09-15T21:12:53.583Z,11.61
2022-09-15T21:14:55.350Z,11.58
2022-09-15T21:16:57.168Z,11.56
2022-09-15T21:18:59.161Z,11.53
2022-09-15T21:21:07.340Z,11.54
2022-09-15T21:23:11.585Z,11.51
2022-09-15T21:25:13.683Z,11.42
2022-09-15T21:27:15.652Z,11.41
2022-09-15T21:29:17.813Z,11.36
2022-09-15T21:31:37.002Z,11.30
2022-09-15T21:33:39.853Z,11.28
2022-09-15T21:35:41.999Z,11.27
2022-09-15T21:37:44.400Z,10.31
2022-09-15T21:39:46.616Z,9.98
2022-09-15T21:41:49.340Z,9.89
2022-09-15T21:44:00.303Z,11.01
2022-09-15T21:46:06.852Z,10.55
2022-09-15T21:48:09.356Z,10.87
2022-09-15T21:50:14.306Z,9.59
2022-09-15T21:52:19.753Z,10.10
2022-09-15T21:54:23.299Z,10.10
2022-09-15T21:56:27.790Z,9.50
2022-09-15T21:58:41.716Z,10.04
2022-09-15T22:00:49.802Z,10.18
2022-09-15T22:03:18.421Z,9.02
2022-09-15T22:05:26.431Z,9.59
2022-09-15T22:07:48.826Z,10.47
2022-09-15T22:09:50.513Z,10.55
2022-09-15T22:11:52.229Z,10.54
2022-09-15T22:14:05.948Z,10.62
2022-09-15T22:16:16.151Z,10.72
2022-09-15T22:18:18.364Z,10.74
2022-09-15T22:20:20.340Z,10.82
2022-09-15T22:22:22.198Z,10.82
2022-09-15T22:24:25.125Z,10.97
2022-09-15T22:26:30.666Z,11.01
2022-09-15T22:28:38.577Z,11.12
2022-09-15T22:30:40.522Z,11.14
2022-09-15T22:32:42.358Z,11.23
2022-09-15T22:34:46.151Z,11.29
2022-09-15T22:36:51.573Z,11.39
2022-09-15T22:38:56.420Z,11.47
2022-09-15T22:41:07.131Z,11.53
2022-09-15T22:43:09.356Z,11.58
2022-09-15T22:45:13.522Z,11.62
2022-09-15T22:49:18.380Z,11.73
2022-09-15T22:51:20.413Z,10.60
2022-09-15T22:53:22.271Z,11.01
2022-09-15T22:55:24.409Z,10.60
2022-09-15T22:57:36.685Z,10.70
2022-09-15T22:59:47.892Z,10.87
2022-09-15T23:01:50.070Z,11.65
2022-09-15T23:03:53.823Z,10.81
2022-09-15T23:06:00.606Z,11.76
2022-09-15T23:08:07.332Z,11.17
2022-09-15T23:10:09.495Z,10.56
2022-09-15T23:12:14.607Z,11.86
2022-09-15T23:14:29.894Z,11.93
2022-09-15T23:16:36.972Z,10.62
2022-09-15T23:18:44.774Z,10.86
2022-09-15T23:20:47.025Z,10.90
2022-09-15T23:22:48.894Z,11.98
2022-09-15T23:24:50.622Z,12.02
2022-09-15T23:26:52.354Z,12.14
2022-09-15T23:28:54.304Z,12.18
2022-09-15T23:30:57.599Z,12.21
2022-09-15T23:32:59.275Z,12.30
2022-09-15T23:35:02.041Z,12.20
2022-09-15T23:37:05.161Z,12.29
2022-09-15T23:39:09.045Z,12.29
2022-09-15T23:41:17.036Z,12.18
2022-09-15T23:43:19.078Z,12.20
2022-09-15T23:45:20.769Z,12.18
2022-09-15T23:47:35.546Z,12.12
2022-09-15T23:49:37.535Z,12.04
2022-09-15T23:51:43.826Z,11.93
2022-09-15T23:53:48.438Z,11.86
2022-09-15T23:55:50.725Z,11.90
2022-09-15T23:57:53.881Z,11.85
